sensor_id;sensor_type;location;lat;lon;timestamp;temperature;humidity
75819;DHT22;64453;51.944;9.796;2024-01-30T00:02:14;7.20;60.70
75819;DHT22;64453;51.944;9.796;2024-01-30T00:04:41;7.40;60.00
75819;DHT22;64453;51.944;9.796;2024-01-30T00:07:08;7.10;60.60
75819;DHT22;64453;51.944;9.796;2024-01-30T00:09:35;7.40;60.00
75819;DHT22;64453;51.944;9.796;2024-01-30T00:12:02;7.50;60.50
75819;DHT22;64453;51.944;9.796;2024-01-30T00:14:29;7.30;59.30
75819;DHT22;64453;51.944;9.796;2024-01-30T00:16:56;7.30;59.90
75819;DHT22;64453;51.944;9.796;2024-01-30T00:19:25;7.40;59.60
75819;DHT22;64453;51.944;9.796;2024-01-30T00:21:52;7.50;60.00
75819;DHT22;64453;51.944;9.796;2024-01-30T00:24:20;7.20;60.00
75819;DHT22;64453;51.944;9.796;2024-01-30T00:26:47;7.40;60.10
75819;DHT22;64453;51.944;9.796;2024-01-30T00:29:15;7.20;60.30
75819;DHT22;64453;51.944;9.796;2024-01-30T00:31:45;7.40;61.10
75819;DHT22;64453;51.944;9.796;2024-01-30T00:34:12;7.40;60.90
75819;DHT22;64453;51.944;9.796;2024-01-30T00:36:41;7.50;60.00
75819;DHT22;64453;51.944;9.796;2024-01-30T00:39:08;7.40;60.90
75819;DHT22;64453;51.944;9.796;2024-01-30T00:41:35;7.40;60.10
75819;DHT22;64453;51.944;9.796;2024-01-30T00:44:02;7.40;60.50
75819;DHT22;64453;51.944;9.796;2024-01-30T00:46:29;7.50;59.90
75819;DHT22;64453;51.944;9.796;2024-01-30T00:48:56;7.60;60.40
75819;DHT22;64453;51.944;9.796;2024-01-30T00:51:23;7.50;60.00
75819;DHT22;64453;51.944;9.796;2024-01-30T00:53:51;7.50;60.60
75819;DHT22;64453;51.944;9.796;2024-01-30T00:56:19;7.50;60.20
75819;DHT22;64453;51.944;9.796;2024-01-30T00:58:46;7.40;59.80
75819;DHT22;64453;51.944;9.796;2024-01-30T01:01:13;7.20;61.00
75819;DHT22;64453;51.944;9.796;2024-01-30T01:03:40;7.00;61.70
75819;DHT22;64453;51.944;9.796;2024-01-30T01:06:09;6.90;64.40
75819;DHT22;64453;51.944;9.796;2024-01-30T01:08:36;6.90;63.90
75819;DHT22;64453;51.944;9.796;2024-01-30T01:11:05;6.90;64.30
75819;DHT22;64453;51.944;9.796;2024-01-30T01:13:34;7.20;64.50
75819;DHT22;64453;51.944;9.796;2024-01-30T01:16:01;7.20;64.40
75819;DHT22;64453;51.944;9.796;2024-01-30T01:18:27;7.20;64.50
75819;DHT22;64453;51.944;9.796;2024-01-30T01:20:54;7.50;63.00
75819;DHT22;64453;51.944;9.796;2024-01-30T01:23:21;7.50;61.70
75819;DHT22;64453;51.944;9.796;2024-01-30T01:25:48;7.80;61.70
75819;DHT22;64453;51.944;9.796;2024-01-30T01:28:16;7.60;62.40
75819;DHT22;64453;51.944;9.796;2024-01-30T01:30:44;7.60;62.60
75819;DHT22;64453;51.944;9.796;2024-01-30T01:33:11;7.60;61.90
75819;DHT22;64453;51.944;9.796;2024-01-30T01:35:39;7.50;61.80
75819;DHT22;64453;51.944;9.796;2024-01-30T01:38:06;7.20;62.00
75819;DHT22;64453;51.944;9.796;2024-01-30T01:40:34;7.40;61.90
75819;DHT22;64453;51.944;9.796;2024-01-30T01:43:03;7.60;61.40
75819;DHT22;64453;51.944;9.796;2024-01-30T01:45:32;7.60;61.40
75819;DHT22;64453;51.944;9.796;2024-01-30T01:48:00;7.70;61.60
75819;DHT22;64453;51.944;9.796;2024-01-30T01:50:27;7.70;62.60
75819;DHT22;64453;51.944;9.796;2024-01-30T01:52:54;7.70;62.00
75819;DHT22;64453;51.944;9.796;2024-01-30T01:55:24;7.60;64.30
75819;DHT22;64453;51.944;9.796;2024-01-30T01:57:53;7.50;63.50
75819;DHT22;64453;51.944;9.796;2024-01-30T02:00:21;7.50;63.30
75819;DHT22;64453;51.944;9.796;2024-01-30T02:02:52;7.50;62.70
75819;DHT22;64453;51.944;9.796;2024-01-30T02:05:20;7.50;62.30
75819;DHT22;64453;51.944;9.796;2024-01-30T02:07:47;7.60;62.50
75819;DHT22;64453;51.944;9.796;2024-01-30T02:10:15;7.70;62.00
75819;DHT22;64453;51.944;9.796;2024-01-30T02:12:42;7.70;62.20
75819;DHT22;64453;51.944;9.796;2024-01-30T02:15:13;7.50;61.60
75819;DHT22;64453;51.944;9.796;2024-01-30T02:17:40;7.30;62.40
75819;DHT22;64453;51.944;9.796;2024-01-30T02:20:11;7.20;62.00
75819;DHT22;64453;51.944;9.796;2024-01-30T02:22:41;7.20;61.50
75819;DHT22;64453;51.944;9.796;2024-01-30T02:25:09;7.10;61.50
75819;DHT22;64453;51.944;9.796;2024-01-30T02:27:36;7.10;61.80
75819;DHT22;64453;51.944;9.796;2024-01-30T02:30:04;6.80;62.70
75819;DHT22;64453;51.944;9.796;2024-01-30T02:32:32;7.00;63.20
75819;DHT22;64453;51.944;9.796;2024-01-30T02:34:59;7.20;62.60
75819;DHT22;64453;51.944;9.796;2024-01-30T02:37:26;7.10;61.70
75819;DHT22;64453;51.944;9.796;2024-01-30T02:39:55;7.10;61.90
75819;DHT22;64453;51.944;9.796;2024-01-30T02:42:22;7.20;62.10
75819;DHT22;64453;51.944;9.796;2024-01-30T02:44:49;7.50;62.30
75819;DHT22;64453;51.944;9.796;2024-01-30T02:47:18;7.30;62.10
75819;DHT22;64453;51.944;9.796;2024-01-30T02:49:45;7.10;61.30
75819;DHT22;64453;51.944;9.796;2024-01-30T02:52:12;7.00;61.30
75819;DHT22;64453;51.944;9.796;2024-01-30T02:54:38;7.00;61.00
75819;DHT22;64453;51.944;9.796;2024-01-30T02:57:07;6.80;61.80
75819;DHT22;64453;51.944;9.796;2024-01-30T02:59:34;6.80;62.20
75819;DHT22;64453;51.944;9.796;2024-01-30T03:02:01;6.80;63.20
75819;DHT22;64453;51.944;9.796;2024-01-30T03:04:29;6.80;62.70
75819;DHT22;64453;51.944;9.796;2024-01-30T03:06:56;6.80;63.40
75819;DHT22;64453;51.944;9.796;2024-01-30T03:09:23;7.00;62.70
75819;DHT22;64453;51.944;9.796;2024-01-30T03:11:50;7.10;63.00
75819;DHT22;64453;51.944;9.796;2024-01-30T03:14:18;7.20;62.40
75819;DHT22;64453;51.944;9.796;2024-01-30T03:16:45;7.10;62.50
75819;DHT22;64453;51.944;9.796;2024-01-30T03:19:13;7.00;62.10
75819;DHT22;64453;51.944;9.796;2024-01-30T03:21:41;6.40;63.20
75819;DHT22;64453;51.944;9.796;2024-01-30T03:24:08;6.70;63.30
75819;DHT22;64453;51.944;9.796;2024-01-30T03:26:35;6.50;63.60
75819;DHT22;64453;51.944;9.796;2024-01-30T03:29:02;6.80;63.40
75819;DHT22;64453;51.944;9.796;2024-01-30T03:31:31;7.00;63.00
75819;DHT22;64453;51.944;9.796;2024-01-30T03:33:58;7.00;62.90
75819;DHT22;64453;51.944;9.796;2024-01-30T03:36:25;7.00;63.40
75819;DHT22;64453;51.944;9.796;2024-01-30T03:38:52;7.10;64.10
75819;DHT22;64453;51.944;9.796;2024-01-30T03:41:19;7.10;63.60
75819;DHT22;64453;51.944;9.796;2024-01-30T03:43:46;7.00;63.20
75819;DHT22;64453;51.944;9.796;2024-01-30T03:46:13;7.10;62.50
75819;DHT22;64453;51.944;9.796;2024-01-30T03:48:42;6.80;61.80
75819;DHT22;64453;51.944;9.796;2024-01-30T03:51:09;6.60;62.60
75819;DHT22;64453;51.944;9.796;2024-01-30T03:53:39;6.70;62.50
75819;DHT22;64453;51.944;9.796;2024-01-30T03:56:07;6.60;62.50
75819;DHT22;64453;51.944;9.796;2024-01-30T03:58:35;6.50;63.00
75819;DHT22;64453;51.944;9.796;2024-01-30T04:01:02;6.60;63.70
75819;DHT22;64453;51.944;9.796;2024-01-30T04:03:29;6.50;63.20
75819;DHT22;64453;51.944;9.796;2024-01-30T04:05:58;6.60;63.70
75819;DHT22;64453;51.944;9.796;2024-01-30T04:08:24;6.70;63.10
75819;DHT22;64453;51.944;9.796;2024-01-30T04:10:52;6.40;63.70
75819;DHT22;64453;51.944;9.796;2024-01-30T04:13:19;6.20;65.00
75819;DHT22;64453;51.944;9.796;2024-01-30T04:15:46;6.30;66.70
75819;DHT22;64453;51.944;9.796;2024-01-30T04:18:13;6.40;65.80
75819;DHT22;64453;51.944;9.796;2024-01-30T04:20:40;6.60;65.30
75819;DHT22;64453;51.944;9.796;2024-01-30T04:23:09;6.80;64.60
75819;DHT22;64453;51.944;9.796;2024-01-30T04:25:36;6.80;64.00
75819;DHT22;64453;51.944;9.796;2024-01-30T04:28:03;6.90;63.90
75819;DHT22;64453;51.944;9.796;2024-01-30T04:30:30;7.00;63.30
75819;DHT22;64453;51.944;9.796;2024-01-30T04:32:59;6.90;62.90
75819;DHT22;64453;51.944;9.796;2024-01-30T04:35:26;6.80;64.10
75819;DHT22;64453;51.944;9.796;2024-01-30T04:37:53;6.90;65.00
75819;DHT22;64453;51.944;9.796;2024-01-30T04:40:22;6.90;65.10
75819;DHT22;64453;51.944;9.796;2024-01-30T04:42:49;6.70;63.50
75819;DHT22;64453;51.944;9.796;2024-01-30T04:45:16;6.80;63.50
75819;DHT22;64453;51.944;9.796;2024-01-30T04:47:43;6.90;63.90
75819;DHT22;64453;51.944;9.796;2024-01-30T04:50:11;7.00;64.10
75819;DHT22;64453;51.944;9.796;2024-01-30T04:52:38;7.00;63.70
75819;DHT22;64453;51.944;9.796;2024-01-30T04:55:06;7.00;63.20
75819;DHT22;64453;51.944;9.796;2024-01-30T04:57:35;6.80;64.30
75819;DHT22;64453;51.944;9.796;2024-01-30T05:00:10;6.90;64.80
75819;DHT22;64453;51.944;9.796;2024-01-30T05:02:38;6.90;64.10
75819;DHT22;64453;51.944;9.796;2024-01-30T05:05:05;6.90;63.60
75819;DHT22;64453;51.944;9.796;2024-01-30T05:07:33;6.80;63.80
75819;DHT22;64453;51.944;9.796;2024-01-30T05:10:00;6.70;63.80
75819;DHT22;64453;51.944;9.796;2024-01-30T05:12:27;6.60;64.90
75819;DHT22;64453;51.944;9.796;2024-01-30T05:14:56;6.60;64.20
75819;DHT22;64453;51.944;9.796;2024-01-30T05:17:23;6.70;66.60
75819;DHT22;64453;51.944;9.796;2024-01-30T05:19:49;6.70;66.70
75819;DHT22;64453;51.944;9.796;2024-01-30T05:22:17;6.60;68.40
75819;DHT22;64453;51.944;9.796;2024-01-30T05:24:44;6.90;67.40
75819;DHT22;64453;51.944;9.796;2024-01-30T05:27:11;6.80;67.30
75819;DHT22;64453;51.944;9.796;2024-01-30T05:29:39;6.90;67.90
75819;DHT22;64453;51.944;9.796;2024-01-30T05:32:08;7.00;66.60
75819;DHT22;64453;51.944;9.796;2024-01-30T05:34:37;6.80;68.60
75819;DHT22;64453;51.944;9.796;2024-01-30T05:37:04;6.50;69.30
75819;DHT22;64453;51.944;9.796;2024-01-30T05:39:31;6.70;69.90
75819;DHT22;64453;51.944;9.796;2024-01-30T05:41:59;6.70;69.50
75819;DHT22;64453;51.944;9.796;2024-01-30T05:44:26;6.90;70.10
75819;DHT22;64453;51.944;9.796;2024-01-30T05:46:53;7.00;68.40
75819;DHT22;64453;51.944;9.796;2024-01-30T05:49:23;7.10;68.30
75819;DHT22;64453;51.944;9.796;2024-01-30T05:51:50;7.20;67.60
75819;DHT22;64453;51.944;9.796;2024-01-30T05:54:17;7.10;69.20
75819;DHT22;64453;51.944;9.796;2024-01-30T05:56:44;7.10;68.30
75819;DHT22;64453;51.944;9.796;2024-01-30T05:59:11;7.10;66.60
75819;DHT22;64453;51.944;9.796;2024-01-30T06:01:38;7.00;67.50
75819;DHT22;64453;51.944;9.796;2024-01-30T06:04:05;7.10;66.70
75819;DHT22;64453;51.944;9.796;2024-01-30T06:06:37;6.90;67.80
75819;DHT22;64453;51.944;9.796;2024-01-30T06:09:04;7.00;69.10
75819;DHT22;64453;51.944;9.796;2024-01-30T06:11:32;7.00;67.90
75819;DHT22;64453;51.944;9.796;2024-01-30T06:13:59;7.10;68.00
75819;DHT22;64453;51.944;9.796;2024-01-30T06:16:26;7.20;67.70
75819;DHT22;64453;51.944;9.796;2024-01-30T06:18:54;7.20;67.10
75819;DHT22;64453;51.944;9.796;2024-01-30T06:21:22;7.00;67.10
75819;DHT22;64453;51.944;9.796;2024-01-30T06:23:52;6.40;68.50
75819;DHT22;64453;51.944;9.796;2024-01-30T06:26:19;6.30;70.40
75819;DHT22;64453;51.944;9.796;2024-01-30T06:28:45;6.40;71.00
75819;DHT22;64453;51.944;9.796;2024-01-30T06:31:12;6.50;70.80
75819;DHT22;64453;51.944;9.796;2024-01-30T06:33:39;6.80;71.30
75819;DHT22;64453;51.944;9.796;2024-01-30T06:36:08;7.00;69.00
75819;DHT22;64453;51.944;9.796;2024-01-30T06:38:35;6.90;69.20
75819;DHT22;64453;51.944;9.796;2024-01-30T06:41:06;6.90;67.60
75819;DHT22;64453;51.944;9.796;2024-01-30T06:43:34;6.60;69.20
75819;DHT22;64453;51.944;9.796;2024-01-30T06:46:01;6.40;68.30
75819;DHT22;64453;51.944;9.796;2024-01-30T06:48:28;6.60;68.80
75819;DHT22;64453;51.944;9.796;2024-01-30T06:50:55;6.60;67.30
75819;DHT22;64453;51.944;9.796;2024-01-30T06:53:23;6.70;68.00
75819;DHT22;64453;51.944;9.796;2024-01-30T06:55:51;6.80;68.50
75819;DHT22;64453;51.944;9.796;2024-01-30T06:58:19;6.80;68.50
75819;DHT22;64453;51.944;9.796;2024-01-30T07:00:46;6.90;67.90
75819;DHT22;64453;51.944;9.796;2024-01-30T07:03:13;6.90;67.50
75819;DHT22;64453;51.944;9.796;2024-01-30T07:05:42;7.00;66.90
75819;DHT22;64453;51.944;9.796;2024-01-30T07:08:09;7.00;66.50
75819;DHT22;64453;51.944;9.796;2024-01-30T07:10:36;7.00;65.70
75819;DHT22;64453;51.944;9.796;2024-01-30T07:13:04;7.00;66.40
75819;DHT22;64453;51.944;9.796;2024-01-30T07:15:33;6.80;65.80
75819;DHT22;64453;51.944;9.796;2024-01-30T07:18:00;6.80;66.30
75819;DHT22;64453;51.944;9.796;2024-01-30T07:20:27;6.90;66.30
75819;DHT22;64453;51.944;9.796;2024-01-30T07:22:57;6.90;66.10
75819;DHT22;64453;51.944;9.796;2024-01-30T07:25:26;6.80;66.60
75819;DHT22;64453;51.944;9.796;2024-01-30T07:27:55;6.80;66.30
75819;DHT22;64453;51.944;9.796;2024-01-30T07:30:23;6.70;68.00
75819;DHT22;64453;51.944;9.796;2024-01-30T07:32:51;6.70;67.80
75819;DHT22;64453;51.944;9.796;2024-01-30T07:35:18;6.50;67.70
75819;DHT22;64453;51.944;9.796;2024-01-30T07:37:45;6.60;68.30
75819;DHT22;64453;51.944;9.796;2024-01-30T07:40:12;6.70;68.30
75819;DHT22;64453;51.944;9.796;2024-01-30T07:42:39;6.80;68.10
75819;DHT22;64453;51.944;9.796;2024-01-30T07:45:07;6.70;67.30
75819;DHT22;64453;51.944;9.796;2024-01-30T07:47:34;6.60;67.20
75819;DHT22;64453;51.944;9.796;2024-01-30T07:50:03;6.60;69.30
75819;DHT22;64453;51.944;9.796;2024-01-30T07:52:31;6.80;69.20
75819;DHT22;64453;51.944;9.796;2024-01-30T07:54:58;6.60;68.90
75819;DHT22;64453;51.944;9.796;2024-01-30T07:57:25;6.80;68.80
75819;DHT22;64453;51.944;9.796;2024-01-30T07:59:52;6.90;68.90
75819;DHT22;64453;51.944;9.796;2024-01-30T08:02:19;7.10;68.50
75819;DHT22;64453;51.944;9.796;2024-01-30T08:04:46;7.10;68.00
75819;DHT22;64453;51.944;9.796;2024-01-30T08:07:16;7.10;67.80
75819;DHT22;64453;51.944;9.796;2024-01-30T08:09:43;7.20;69.00
75819;DHT22;64453;51.944;9.796;2024-01-30T08:12:10;7.30;69.00
75819;DHT22;64453;51.944;9.796;2024-01-30T08:14:38;7.40;69.30
75819;DHT22;64453;51.944;9.796;2024-01-30T08:17:06;7.40;69.60
75819;DHT22;64453;51.944;9.796;2024-01-30T08:19:34;7.50;69.60
75819;DHT22;64453;51.944;9.796;2024-01-30T08:22:00;7.50;70.10
75819;DHT22;64453;51.944;9.796;2024-01-30T08:24:29;7.60;70.10
75819;DHT22;64453;51.944;9.796;2024-01-30T08:26:56;7.30;71.00
75819;DHT22;64453;51.944;9.796;2024-01-30T08:29:23;7.50;71.00
75819;DHT22;64453;51.944;9.796;2024-01-30T08:31:50;7.70;70.70
75819;DHT22;64453;51.944;9.796;2024-01-30T08:34:17;7.70;70.50
75819;DHT22;64453;51.944;9.796;2024-01-30T08:36:44;7.70;70.90
75819;DHT22;64453;51.944;9.796;2024-01-30T08:39:11;7.80;71.30
75819;DHT22;64453;51.944;9.796;2024-01-30T08:41:39;7.70;71.70
75819;DHT22;64453;51.944;9.796;2024-01-30T08:44:06;7.80;72.00
75819;DHT22;64453;51.944;9.796;2024-01-30T08:46:33;7.70;71.80
75819;DHT22;64453;51.944;9.796;2024-01-30T08:49:00;7.90;72.50
75819;DHT22;64453;51.944;9.796;2024-01-30T08:51:28;7.80;72.50
75819;DHT22;64453;51.944;9.796;2024-01-30T08:53:55;7.70;72.80
75819;DHT22;64453;51.944;9.796;2024-01-30T08:56:22;7.70;72.70
75819;DHT22;64453;51.944;9.796;2024-01-30T08:58:52;7.90;73.20
75819;DHT22;64453;51.944;9.796;2024-01-30T09:01:19;7.80;73.10
75819;DHT22;64453;51.944;9.796;2024-01-30T09:03:46;7.90;73.10
75819;DHT22;64453;51.944;9.796;2024-01-30T09:06:13;8.00;73.50
75819;DHT22;64453;51.944;9.796;2024-01-30T09:08:40;8.10;73.70
75819;DHT22;64453;51.944;9.796;2024-01-30T09:11:09;8.10;73.40
75819;DHT22;64453;51.944;9.796;2024-01-30T09:13:36;8.10;73.80
75819;DHT22;64453;51.944;9.796;2024-01-30T09:16:05;8.20;74.00
75819;DHT22;64453;51.944;9.796;2024-01-30T09:18:33;8.30;74.10
75819;DHT22;64453;51.944;9.796;2024-01-30T09:21:00;8.30;74.10
75819;DHT22;64453;51.944;9.796;2024-01-30T09:23:30;8.40;73.90
75819;DHT22;64453;51.944;9.796;2024-01-30T09:25:58;8.40;74.10
75819;DHT22;64453;51.944;9.796;2024-01-30T09:28:28;8.50;74.00
75819;DHT22;64453;51.944;9.796;2024-01-30T09:30:55;8.50;73.70
75819;DHT22;64453;51.944;9.796;2024-01-30T09:33:24;8.60;74.50
75819;DHT22;64453;51.944;9.796;2024-01-30T09:35:51;8.50;73.70
75819;DHT22;64453;51.944;9.796;2024-01-30T09:38:18;8.60;73.60
75819;DHT22;64453;51.944;9.796;2024-01-30T09:40:51;8.60;73.30
75819;DHT22;64453;51.944;9.796;2024-01-30T09:43:23;8.60;73.10
75819;DHT22;64453;51.944;9.796;2024-01-30T09:45:50;8.60;72.90
75819;DHT22;64453;51.944;9.796;2024-01-30T09:48:17;8.70;73.10
75819;DHT22;64453;51.944;9.796;2024-01-30T09:50:46;8.90;73.30
75819;DHT22;64453;51.944;9.796;2024-01-30T09:53:13;8.90;73.10
75819;DHT22;64453;51.944;9.796;2024-01-30T09:55:43;8.80;73.30
75819;DHT22;64453;51.944;9.796;2024-01-30T09:58:12;8.90;73.50
75819;DHT22;64453;51.944;9.796;2024-01-30T10:00:39;9.00;73.70
75819;DHT22;64453;51.944;9.796;2024-01-30T10:03:07;9.00;73.50
75819;DHT22;64453;51.944;9.796;2024-01-30T10:05:35;9.00;73.70
75819;DHT22;64453;51.944;9.796;2024-01-30T10:08:09;9.10;73.70
75819;DHT22;64453;51.944;9.796;2024-01-30T10:10:36;9.10;73.80
75819;DHT22;64453;51.944;9.796;2024-01-30T10:13:04;9.10;73.90
75819;DHT22;64453;51.944;9.796;2024-01-30T10:15:31;9.30;73.70
75819;DHT22;64453;51.944;9.796;2024-01-30T10:17:58;9.30;73.70
75819;DHT22;64453;51.944;9.796;2024-01-30T10:20:25;9.40;73.30
75819;DHT22;64453;51.944;9.796;2024-01-30T10:22:52;9.40;73.70
75819;DHT22;64453;51.944;9.796;2024-01-30T10:25:23;9.30;73.90
75819;DHT22;64453;51.944;9.796;2024-01-30T10:27:52;9.40;73.70
75819;DHT22;64453;51.944;9.796;2024-01-30T10:30:20;9.50;74.00
75819;DHT22;64453;51.944;9.796;2024-01-30T10:32:47;9.50;74.00
75819;DHT22;64453;51.944;9.796;2024-01-30T10:35:15;9.40;73.60
75819;DHT22;64453;51.944;9.796;2024-01-30T10:37:43;9.40;73.70
75819;DHT22;64453;51.944;9.796;2024-01-30T10:40:13;9.50;73.60
75819;DHT22;64453;51.944;9.796;2024-01-30T10:42:44;9.60;73.30
75819;DHT22;64453;51.944;9.796;2024-01-30T10:45:12;9.60;73.30
75819;DHT22;64453;51.944;9.796;2024-01-30T10:47:43;9.60;72.90
75819;DHT22;64453;51.944;9.796;2024-01-30T10:50:15;9.70;72.90
75819;DHT22;64453;51.944;9.796;2024-01-30T10:52:45;9.80;72.40
75819;DHT22;64453;51.944;9.796;2024-01-30T10:55:14;9.80;71.80
75819;DHT22;64453;51.944;9.796;2024-01-30T10:57:44;9.80;71.90
75819;DHT22;64453;51.944;9.796;2024-01-30T11:00:13;9.90;71.90
75819;DHT22;64453;51.944;9.796;2024-01-30T11:02:42;10.00;70.80
75819;DHT22;64453;51.944;9.796;2024-01-30T11:05:11;10.00;71.20
75819;DHT22;64453;51.944;9.796;2024-01-30T11:07:39;10.00;71.50
75819;DHT22;64453;51.944;9.796;2024-01-30T11:10:07;10.00;70.80
75819;DHT22;64453;51.944;9.796;2024-01-30T11:12:38;10.00;70.60
75819;DHT22;64453;51.944;9.796;2024-01-30T11:15:12;10.10;71.10
75819;DHT22;64453;51.944;9.796;2024-01-30T11:17:41;10.10;70.90
75819;DHT22;64453;51.944;9.796;2024-01-30T11:20:14;10.20;71.00
75819;DHT22;64453;51.944;9.796;2024-01-30T11:22:42;10.20;70.90
75819;DHT22;64453;51.944;9.796;2024-01-30T11:25:14;10.20;71.10
75819;DHT22;64453;51.944;9.796;2024-01-30T11:27:42;10.20;70.90
75819;DHT22;64453;51.944;9.796;2024-01-30T11:30:20;10.10;70.70
75819;DHT22;64453;51.944;9.796;2024-01-30T11:33:01;10.20;71.20
75819;DHT22;64453;51.944;9.796;2024-01-30T11:35:31;10.20;72.10
75819;DHT22;64453;51.944;9.796;2024-01-30T11:37:59;10.30;71.00
75819;DHT22;64453;51.944;9.796;2024-01-30T11:40:28;10.30;71.00
75819;DHT22;64453;51.944;9.796;2024-01-30T11:42:58;10.30;71.20
75819;DHT22;64453;51.944;9.796;2024-01-30T11:45:28;10.30;71.00
75819;DHT22;64453;51.944;9.796;2024-01-30T11:47:55;10.40;70.80
75819;DHT22;64453;51.944;9.796;2024-01-30T11:50:22;10.40;70.90
75819;DHT22;64453;51.944;9.796;2024-01-30T11:52:49;10.50;70.80
75819;DHT22;64453;51.944;9.796;2024-01-30T11:55:17;10.50;70.80
75819;DHT22;64453;51.944;9.796;2024-01-30T11:57:44;10.50;70.90
75819;DHT22;64453;51.944;9.796;2024-01-30T12:00:16;10.50;70.80
75819;DHT22;64453;51.944;9.796;2024-01-30T12:02:49;10.50;70.80
75819;DHT22;64453;51.944;9.796;2024-01-30T12:05:18;10.60;71.00
75819;DHT22;64453;51.944;9.796;2024-01-30T12:07:45;10.50;71.10
75819;DHT22;64453;51.944;9.796;2024-01-30T12:10:14;10.60;71.10
75819;DHT22;64453;51.944;9.796;2024-01-30T12:12:50;10.60;70.90
75819;DHT22;64453;51.944;9.796;2024-01-30T12:15:18;10.60;71.00
75819;DHT22;64453;51.944;9.796;2024-01-30T12:17:49;10.60;70.70
75819;DHT22;64453;51.944;9.796;2024-01-30T12:20:18;10.60;70.50
75819;DHT22;64453;51.944;9.796;2024-01-30T12:22:47;10.60;70.30
75819;DHT22;64453;51.944;9.796;2024-01-30T12:25:15;10.60;70.20
75819;DHT22;64453;51.944;9.796;2024-01-30T12:27:44;10.70;70.30
75819;DHT22;64453;51.944;9.796;2024-01-30T12:30:12;10.70;70.00
75819;DHT22;64453;51.944;9.796;2024-01-30T12:32:40;10.80;70.30
75819;DHT22;64453;51.944;9.796;2024-01-30T12:35:12;10.90;70.50
75819;DHT22;64453;51.944;9.796;2024-01-30T12:37:41;10.80;70.30
75819;DHT22;64453;51.944;9.796;2024-01-30T12:40:10;10.80;70.50
75819;DHT22;64453;51.944;9.796;2024-01-30T12:42:40;10.80;70.50
75819;DHT22;64453;51.944;9.796;2024-01-30T12:45:08;10.90;70.20
75819;DHT22;64453;51.944;9.796;2024-01-30T12:47:36;10.80;69.80
75819;DHT22;64453;51.944;9.796;2024-01-30T12:50:04;10.90;70.00
75819;DHT22;64453;51.944;9.796;2024-01-30T12:52:33;10.90;70.10
75819;DHT22;64453;51.944;9.796;2024-01-30T12:55:01;11.00;70.10
75819;DHT22;64453;51.944;9.796;2024-01-30T12:57:29;11.00;70.30
75819;DHT22;64453;51.944;9.796;2024-01-30T12:59:57;11.00;70.70
75819;DHT22;64453;51.944;9.796;2024-01-30T13:02:26;11.00;70.60
75819;DHT22;64453;51.944;9.796;2024-01-30T13:05:01;11.10;70.60
75819;DHT22;64453;51.944;9.796;2024-01-30T13:07:29;11.10;70.40
75819;DHT22;64453;51.944;9.796;2024-01-30T13:09:58;11.10;70.30
75819;DHT22;64453;51.944;9.796;2024-01-30T13:12:28;11.10;70.60
75819;DHT22;64453;51.944;9.796;2024-01-30T13:14:55;11.20;70.70
75819;DHT22;64453;51.944;9.796;2024-01-30T13:17:23;11.20;70.20
75819;DHT22;64453;51.944;9.796;2024-01-30T13:19:51;11.10;70.20
75819;DHT22;64453;51.944;9.796;2024-01-30T13:22:19;11.20;70.50
75819;DHT22;64453;51.944;9.796;2024-01-30T13:24:47;11.10;70.40
75819;DHT22;64453;51.944;9.796;2024-01-30T13:27:15;11.20;70.80
75819;DHT22;64453;51.944;9.796;2024-01-30T13:29:42;11.20;71.00
75819;DHT22;64453;51.944;9.796;2024-01-30T13:32:09;11.20;71.00
75819;DHT22;64453;51.944;9.796;2024-01-30T13:34:36;11.20;71.00
75819;DHT22;64453;51.944;9.796;2024-01-30T13:37:03;11.20;70.90
75819;DHT22;64453;51.944;9.796;2024-01-30T13:39:30;11.20;70.70
75819;DHT22;64453;51.944;9.796;2024-01-30T13:41:57;11.20;70.80
75819;DHT22;64453;51.944;9.796;2024-01-30T13:44:26;11.20;71.00
75819;DHT22;64453;51.944;9.796;2024-01-30T13:46:54;11.20;71.20
75819;DHT22;64453;51.944;9.796;2024-01-30T13:49:22;11.20;71.20
75819;DHT22;64453;51.944;9.796;2024-01-30T13:51:48;11.30;71.30
75819;DHT22;64453;51.944;9.796;2024-01-30T13:54:15;11.20;71.50
75819;DHT22;64453;51.944;9.796;2024-01-30T13:56:43;11.30;71.80
75819;DHT22;64453;51.944;9.796;2024-01-30T13:59:10;11.30;71.20
75819;DHT22;64453;51.944;9.796;2024-01-30T14:01:38;11.30;71.50
75819;DHT22;64453;51.944;9.796;2024-01-30T14:04:06;11.30;71.70
75819;DHT22;64453;51.944;9.796;2024-01-30T14:06:33;11.30;71.70
75819;DHT22;64453;51.944;9.796;2024-01-30T14:09:00;11.30;72.10
75819;DHT22;64453;51.944;9.796;2024-01-30T14:11:27;11.30;72.30
75819;DHT22;64453;51.944;9.796;2024-01-30T14:13:54;11.30;72.50
75819;DHT22;64453;51.944;9.796;2024-01-30T14:16:21;11.30;72.60
75819;DHT22;64453;51.944;9.796;2024-01-30T14:18:51;11.30;72.60
75819;DHT22;64453;51.944;9.796;2024-01-30T14:21:18;11.30;72.60
75819;DHT22;64453;51.944;9.796;2024-01-30T14:23:45;11.30;72.60
75819;DHT22;64453;51.944;9.796;2024-01-30T14:26:12;11.30;72.60
75819;DHT22;64453;51.944;9.796;2024-01-30T14:28:39;11.30;72.50
75819;DHT22;64453;51.944;9.796;2024-01-30T14:31:07;11.30;72.50
75819;DHT22;64453;51.944;9.796;2024-01-30T14:33:34;11.30;72.60
75819;DHT22;64453;51.944;9.796;2024-01-30T14:36:03;11.30;72.80
75819;DHT22;64453;51.944;9.796;2024-01-30T14:38:31;11.30;72.80
75819;DHT22;64453;51.944;9.796;2024-01-30T14:40:58;11.30;72.90
75819;DHT22;64453;51.944;9.796;2024-01-30T14:43:26;11.30;72.80
75819;DHT22;64453;51.944;9.796;2024-01-30T14:45:53;11.30;72.90
75819;DHT22;64453;51.944;9.796;2024-01-30T14:48:20;11.30;72.90
75819;DHT22;64453;51.944;9.796;2024-01-30T14:50:47;11.30;72.80
75819;DHT22;64453;51.944;9.796;2024-01-30T14:53:15;11.40;72.80
75819;DHT22;64453;51.944;9.796;2024-01-30T14:55:42;11.30;72.70
75819;DHT22;64453;51.944;9.796;2024-01-30T14:58:09;11.30;72.60
75819;DHT22;64453;51.944;9.796;2024-01-30T15:00:36;11.30;72.50
75819;DHT22;64453;51.944;9.796;2024-01-30T15:03:04;11.40;72.40
75819;DHT22;64453;51.944;9.796;2024-01-30T15:05:31;11.40;72.30
75819;DHT22;64453;51.944;9.796;2024-01-30T15:07:58;11.40;72.10
75819;DHT22;64453;51.944;9.796;2024-01-30T15:10:27;11.40;71.90
75819;DHT22;64453;51.944;9.796;2024-01-30T15:12:56;11.40;71.80
75819;DHT22;64453;51.944;9.796;2024-01-30T15:15:23;11.40;71.70
75819;DHT22;64453;51.944;9.796;2024-01-30T15:17:50;11.40;71.70
75819;DHT22;64453;51.944;9.796;2024-01-30T15:20:18;11.40;71.70
75819;DHT22;64453;51.944;9.796;2024-01-30T15:22:45;11.40;71.60
75819;DHT22;64453;51.944;9.796;2024-01-30T15:25:13;11.40;71.60
75819;DHT22;64453;51.944;9.796;2024-01-30T15:27:41;11.40;71.60
75819;DHT22;64453;51.944;9.796;2024-01-30T15:30:11;11.40;71.60
75819;DHT22;64453;51.944;9.796;2024-01-30T15:32:39;11.40;71.60
75819;DHT22;64453;51.944;9.796;2024-01-30T15:35:06;11.40;71.60
75819;DHT22;64453;51.944;9.796;2024-01-30T15:37:34;11.40;71.70
75819;DHT22;64453;51.944;9.796;2024-01-30T15:40:03;11.40;71.70
75819;DHT22;64453;51.944;9.796;2024-01-30T15:42:32;11.40;71.70
75819;DHT22;64453;51.944;9.796;2024-01-30T15:45:00;11.50;71.80
75819;DHT22;64453;51.944;9.796;2024-01-30T15:47:27;11.50;71.80